createdAt,value
2023-01-08T00:00:24.167Z,60.90
2023-01-08T00:02:51.970Z,64.12
2023-01-08T00:05:19.463Z,68.30
2023-01-08T00:07:46.845Z,75.40
2023-01-08T00:10:14.851Z,71.37
2023-01-08T00:12:42.191Z,68.43
2023-01-08T00:15:09.788Z,67.37
2023-01-08T00:17:37.477Z,68.68
2023-01-08T00:20:05.312Z,66.12
2023-01-08T00:22:32.647Z,66.12
2023-01-08T00:25:00.303Z,71.80
2023-01-08T00:27:27.694Z,69.65
2023-01-08T00:29:55.082Z,69.03
2023-01-08T00:32:22.781Z,61.47
2023-01-08T00:34:50.153Z,69.35
2023-01-08T00:37:20.141Z,65.30
2023-01-08T00:39:47.768Z,65.95
2023-01-08T00:42:15.108Z,63.35
2023-01-08T00:44:42.480Z,62.17
2023-01-08T00:47:10.178Z,60.17
2023-01-08T00:49:37.790Z,57.28
2023-01-08T00:52:07.648Z,63.90
2023-01-08T00:54:35.389Z,66.00
2023-01-08T00:57:02.767Z,57.53
2023-01-08T00:59:30.116Z,57.47
2023-01-08T01:01:57.853Z,62.33
2023-01-08T01:04:26.337Z,61.10
2023-01-08T01:06:53.748Z,56.30
2023-01-08T01:09:21.404Z,66.57
2023-01-08T01:11:48.818Z,60.90
2023-01-08T01:14:16.516Z,59.28
2023-01-08T01:16:44.318Z,58.80
2023-01-08T01:19:12.076Z,59.97
2023-01-08T01:21:39.449Z,51.22
2023-01-08T01:24:07.479Z,54.53
2023-01-08T01:26:35.066Z,51.85
2023-01-08T01:29:02.744Z,59.13
2023-01-08T01:31:31.922Z,57.65
2023-01-08T01:33:59.544Z,62.92
2023-01-08T01:36:27.524Z,60.20
2023-01-08T01:38:56.499Z,57.55
2023-01-08T01:41:28.398Z,64.57
2023-01-08T01:43:58.723Z,61.37
2023-01-08T01:46:40.027Z,53.67
2023-01-08T01:49:14.173Z,55.10
2023-01-08T01:51:44.171Z,58.78
2023-01-08T01:54:13.272Z,59.20
2023-01-08T01:56:41.364Z,57.45
2023-01-08T01:59:09.251Z,54.08
2023-01-08T02:01:38.119Z,52.92
2023-01-08T02:04:06.510Z,50.30
2023-01-08T02:07:00.379Z,54.10
2023-01-08T02:09:45.356Z,52.40
2023-01-08T02:12:20.580Z,54.35
2023-01-08T02:14:57.106Z,54.83
2023-01-08T02:17:40.010Z,51.67
2023-01-08T02:22:45.617Z,57.75
2023-01-08T02:25:33.289Z,56.92
2023-01-08T02:28:01.932Z,54.63
2023-01-08T02:30:30.053Z,52.72
2023-01-08T02:32:57.444Z,54.30
2023-01-08T02:35:34.875Z,52.97
2023-01-08T02:38:02.333Z,53.15
2023-01-08T02:40:37.615Z,50.40
2023-01-08T02:43:17.531Z,50.55
2023-01-08T02:45:55.468Z,49.05
2023-01-08T02:48:46.213Z,55.00
2023-01-08T02:51:35.318Z,49.25
2023-01-08T02:54:05.495Z,53.28
2023-01-08T02:56:37.075Z,50.00
2023-01-08T02:59:05.598Z,47.10
2023-01-08T03:01:34.842Z,50.80
2023-01-08T03:04:06.789Z,49.40
2023-01-08T03:06:34.734Z,48.40
2023-01-08T03:09:02.230Z,53.15
2023-01-08T03:11:33.947Z,51.10
2023-01-08T03:14:11.107Z,47.95
2023-01-08T03:16:49.590Z,50.72
2023-01-08T03:19:21.113Z,52.13
2023-01-08T03:21:49.345Z,46.40
2023-01-08T03:24:21.858Z,46.65
2023-01-08T03:26:52.105Z,49.78
2023-01-08T03:29:21.083Z,48.30
2023-01-08T03:31:49.809Z,46.42
2023-01-08T03:34:18.543Z,49.30
2023-01-08T03:36:48.616Z,46.13
2023-01-08T03:39:33.210Z,49.00
2023-01-08T03:42:06.016Z,49.20
2023-01-08T03:44:33.712Z,46.75
2023-01-08T03:47:02.923Z,49.03
2023-01-08T03:49:30.758Z,47.30
2023-01-08T03:51:58.183Z,46.67
2023-01-08T03:54:33.270Z,48.83
2023-01-08T03:57:00.655Z,48.63
2023-01-08T03:59:28.356Z,49.72
2023-01-08T04:01:55.908Z,47.90
2023-01-08T04:04:23.739Z,47.62
2023-01-08T04:06:53.148Z,50.17
2023-01-08T04:09:20.695Z,45.22
2023-01-08T04:11:48.374Z,51.47
2023-01-08T04:14:15.834Z,48.92
2023-01-08T04:16:43.177Z,54.45
2023-01-08T04:19:14.432Z,52.00
2023-01-08T04:21:42.029Z,51.22
2023-01-08T04:24:13.200Z,48.25
2023-01-08T04:26:40.900Z,48.33
2023-01-08T04:29:08.261Z,50.88
2023-01-08T04:31:35.603Z,49.45
2023-01-08T04:34:03.338Z,54.50
2023-01-08T04:36:30.757Z,56.00
2023-01-08T04:38:58.122Z,49.78
2023-01-08T04:41:25.748Z,51.28
2023-01-08T04:43:53.101Z,45.75
2023-01-08T04:46:20.487Z,48.60
2023-01-08T04:48:48.147Z,52.85
2023-01-08T04:51:15.511Z,50.10
2023-01-08T04:53:42.905Z,49.28
2023-01-08T04:56:11.324Z,43.70
2023-01-08T04:58:39.243Z,52.53
2023-01-08T05:01:19.308Z,48.75
2023-01-08T05:03:47.023Z,49.17
2023-01-08T05:06:14.495Z,52.85
2023-01-08T05:08:42.131Z,45.42
2023-01-08T05:11:10.137Z,49.50
2023-01-08T05:13:37.543Z,48.60
2023-01-08T05:16:05.242Z,48.42
2023-01-08T05:18:33.006Z,51.28
2023-01-08T05:21:05.107Z,54.13
2023-01-08T05:26:01.634Z,46.78
2023-01-08T05:28:29.866Z,49.00
2023-01-08T05:30:57.837Z,57.25
2023-01-08T05:33:26.129Z,47.58
2023-01-08T05:35:53.630Z,51.13
2023-01-08T05:38:21.330Z,47.88
2023-01-08T05:40:52.157Z,49.45
2023-01-08T05:43:19.726Z,51.92
2023-01-08T05:45:47.494Z,49.83
2023-01-08T05:48:14.945Z,55.00
2023-01-08T05:50:42.339Z,49.33
2023-01-08T05:53:10.234Z,51.78
2023-01-08T05:55:37.569Z,50.35
2023-01-08T05:58:05.570Z,50.50
2023-01-08T06:00:34.405Z,43.87
2023-01-08T06:03:02.198Z,44.90
2023-01-08T06:05:31.249Z,47.22
2023-01-08T06:07:59.680Z,54.08
2023-01-08T06:10:27.639Z,49.63
2023-01-08T06:12:55.598Z,46.47
2023-01-08T06:15:23.032Z,50.17
2023-01-08T06:17:50.759Z,50.72
2023-01-08T06:20:18.179Z,50.25
2023-01-08T06:22:45.537Z,51.10
2023-01-08T06:25:13.206Z,50.05
2023-01-08T06:27:40.812Z,47.33
2023-01-08T06:30:09.024Z,46.22
2023-01-08T06:32:36.753Z,46.67
2023-01-08T06:35:04.469Z,47.22
2023-01-08T06:37:32.162Z,45.08
2023-01-08T06:39:59.801Z,46.15
2023-01-08T06:42:27.427Z,47.75
2023-01-08T06:44:54.805Z,50.55
2023-01-08T06:47:22.445Z,46.95
2023-01-08T06:49:50.071Z,43.87
2023-01-08T06:52:17.477Z,49.03
2023-01-08T06:54:45.096Z,47.47
2023-01-08T06:57:12.438Z,45.60
2023-01-08T06:59:39.808Z,48.55
2023-01-08T07:02:13.222Z,45.47
2023-01-08T07:04:40.661Z,49.50
2023-01-08T07:07:14.028Z,50.00
2023-01-08T07:09:42.351Z,49.33
2023-01-08T07:12:13.809Z,51.37
2023-01-08T07:14:41.480Z,46.97
2023-01-08T07:17:08.989Z,44.60
2023-01-08T07:19:36.714Z,49.85
2023-01-08T07:22:04.119Z,51.58
2023-01-08T07:24:31.535Z,48.35
2023-01-08T07:26:59.225Z,51.72
2023-01-08T07:29:27.265Z,51.83
2023-01-08T07:31:54.676Z,53.65
2023-01-08T07:34:22.283Z,47.28
2023-01-08T07:36:49.831Z,44.03
2023-01-08T07:39:17.192Z,47.60
2023-01-08T07:41:44.872Z,48.53
2023-01-08T07:44:12.466Z,49.17
2023-01-08T07:46:40.108Z,48.90
2023-01-08T07:49:07.858Z,49.40
2023-01-08T07:51:35.519Z,45.97
2023-01-08T07:54:03.173Z,47.75
2023-01-08T07:56:30.891Z,48.78
2023-01-08T07:58:58.281Z,45.35
2023-01-08T08:01:26.662Z,45.22
2023-01-08T08:03:54.400Z,46.88
2023-01-08T08:06:21.741Z,47.67
2023-01-08T08:08:49.330Z,43.67
2023-01-08T08:11:16.954Z,46.47
2023-01-08T08:13:45.152Z,42.72
2023-01-08T08:16:13.304Z,46.63
2023-01-08T08:18:41.070Z,43.78
2023-01-08T08:21:08.487Z,44.83
2023-01-08T08:23:36.899Z,46.10
2023-01-08T08:26:04.997Z,43.50
2023-01-08T08:28:32.329Z,42.42
2023-01-08T08:30:59.756Z,45.28
2023-01-08T08:33:27.491Z,42.95
2023-01-08T08:35:54.920Z,43.17
2023-01-08T08:38:24.036Z,44.13
2023-01-08T08:40:52.255Z,40.70
2023-01-08T08:43:19.762Z,37.55
2023-01-08T08:45:47.120Z,38.75
2023-01-08T08:48:16.728Z,38.97
2023-01-08T08:50:44.209Z,37.15
2023-01-08T08:53:11.664Z,39.13
2023-01-08T08:55:39.336Z,36.03
2023-01-08T08:58:12.543Z,35.15
2023-01-08T09:00:42.956Z,34.85
2023-01-08T09:03:13.775Z,34.80
2023-01-08T09:05:43.087Z,35.28
2023-01-08T09:08:11.219Z,34.00
2023-01-08T09:10:39.985Z,33.63
2023-01-08T09:13:08.063Z,32.80
2023-01-08T09:15:37.064Z,33.25
2023-01-08T09:18:05.114Z,35.92
2023-01-08T09:20:32.783Z,35.17
2023-01-08T09:23:01.450Z,29.40
2023-01-08T09:25:29.386Z,33.33
2023-01-08T09:28:01.569Z,33.55
2023-01-08T09:30:29.420Z,35.10
2023-01-08T09:33:02.854Z,30.65
2023-01-08T09:35:31.376Z,32.70
2023-01-08T09:37:59.355Z,32.08
2023-01-08T09:40:41.033Z,32.22
2023-01-08T09:43:15.064Z,30.30
2023-01-08T09:45:43.406Z,30.20
2023-01-08T09:48:16.495Z,32.58
2023-01-08T09:50:44.181Z,30.77
2023-01-08T09:53:16.394Z,29.27
2023-01-08T09:55:45.620Z,29.92
2023-01-08T09:58:24.920Z,31.37
2023-01-08T10:00:52.736Z,27.60
2023-01-08T10:03:30.580Z,28.20
2023-01-08T10:05:57.939Z,29.73
2023-01-08T10:08:25.669Z,31.37
2023-01-08T10:10:53.136Z,34.72
2023-01-08T10:13:20.519Z,31.55
2023-01-08T10:15:48.398Z,29.75
2023-01-08T10:18:19.111Z,30.17
2023-01-08T10:20:46.537Z,27.15
2023-01-08T10:23:19.324Z,27.08
2023-01-08T10:28:26.918Z,27.30
2023-01-08T10:31:14.887Z,24.35
2023-01-08T10:33:47.601Z,25.33
2023-01-08T10:36:17.650Z,21.10
2023-01-08T10:38:56.510Z,27.58
2023-01-08T10:41:24.110Z,24.52
2023-01-08T10:43:55.279Z,23.65
2023-01-08T10:46:25.064Z,25.00
2023-01-08T10:48:55.387Z,25.23
2023-01-08T10:51:28.004Z,21.02
2023-01-08T10:53:59.185Z,23.15
2023-01-08T10:56:28.594Z,25.10
2023-01-08T10:58:56.719Z,32.13
2023-01-08T11:01:29.057Z,32.60
2023-01-08T11:04:05.377Z,29.70
2023-01-08T11:06:34.585Z,29.10
2023-01-08T11:09:05.222Z,33.15
2023-01-08T11:11:37.187Z,25.70
2023-01-08T11:14:26.799Z,30.37
2023-01-08T11:16:54.726Z,26.75
2023-01-08T11:19:31.136Z,28.25
2023-01-08T11:22:04.678Z,27.45
2023-01-08T11:24:34.637Z,26.27
2023-01-08T11:27:05.031Z,25.62
2023-01-08T11:29:45.664Z,25.02
2023-01-08T11:32:15.835Z,27.42
2023-01-08T11:35:08.468Z,26.23
2023-01-08T11:37:37.900Z,31.02
2023-01-08T11:40:14.755Z,25.88
2023-01-08T11:43:11.331Z,26.23
2023-01-08T11:45:44.141Z,27.33
2023-01-08T11:48:23.852Z,24.55
2023-01-08T11:51:18.555Z,24.05
2023-01-08T11:53:51.589Z,25.48
2023-01-08T11:56:40.051Z,27.83
2023-01-08T11:59:26.626Z,26.75
2023-01-08T12:02:20.617Z,25.48
2023-01-08T12:04:57.288Z,25.92
2023-01-08T12:07:53.554Z,27.20
2023-01-08T12:10:27.907Z,24.98
2023-01-08T12:13:24.276Z,27.55
2023-01-08T12:16:08.526Z,26.52
2023-01-08T12:18:41.776Z,25.35
2023-01-08T12:21:26.860Z,24.95
2023-01-08T12:24:16.458Z,26.12
2023-01-08T12:26:59.401Z,27.08
2023-01-08T12:29:51.383Z,26.52
2023-01-08T12:32:33.718Z,25.40
2023-01-08T12:35:21.524Z,25.95
2023-01-08T12:37:54.169Z,27.08
2023-01-08T12:40:36.321Z,27.75
2023-01-08T12:43:07.859Z,24.85
2023-01-08T12:45:41.842Z,29.58
2023-01-08T12:48:18.977Z,31.60
2023-01-08T12:51:07.487Z,31.02
2023-01-08T12:53:41.991Z,30.48
2023-01-08T12:56:21.381Z,25.12
2023-01-08T12:58:55.037Z,23.40
2023-01-08T13:01:49.229Z,25.15
2023-01-08T13:04:17.211Z,26.80
2023-01-08T13:07:13.369Z,25.90
2023-01-08T13:09:41.052Z,25.35
2023-01-08T13:12:09.084Z,27.45
2023-01-08T13:14:43.555Z,28.85
2023-01-08T13:17:19.883Z,26.50
2023-01-08T13:19:53.191Z,29.67
2023-01-08T13:22:29.623Z,24.65
2023-01-08T13:25:09.294Z,26.25
2023-01-08T13:27:37.000Z,27.87
2023-01-08T13:30:30.891Z,24.73
2023-01-08T13:32:58.725Z,27.27
2023-01-08T13:35:29.511Z,27.27
2023-01-08T13:38:17.949Z,26.75
2023-01-08T13:40:46.441Z,26.83
2023-01-08T13:43:24.567Z,26.80
2023-01-08T13:45:58.291Z,26.05
2023-01-08T13:48:28.312Z,24.67
2023-01-08T13:50:56.327Z,23.65
2023-01-08T13:53:24.438Z,26.75
2023-01-08T13:56:00.144Z,25.70
2023-01-08T13:58:31.984Z,28.65
2023-01-08T14:01:00.324Z,25.50
2023-01-08T14:03:27.992Z,23.48
2023-01-08T14:06:17.998Z,23.70
2023-01-08T14:08:55.599Z,23.67
2023-01-08T14:11:25.477Z,28.17
2023-01-08T14:13:53.240Z,25.48
2023-01-08T14:16:21.703Z,29.08
2023-01-08T14:18:50.059Z,34.55
2023-01-08T14:21:22.079Z,28.92
2023-01-08T14:23:50.617Z,24.30
2023-01-08T14:26:32.379Z,25.62
2023-01-08T14:29:01.573Z,23.52
2023-01-08T14:31:29.571Z,28.27
2023-01-08T14:33:58.711Z,26.75
2023-01-08T14:36:26.703Z,30.05
2023-01-08T14:38:54.371Z,27.23
2023-01-08T14:41:52.624Z,24.77
2023-01-08T14:44:29.121Z,24.85
2023-01-08T14:47:03.865Z,23.95
2023-01-08T14:49:34.419Z,31.30
2023-01-08T14:52:02.725Z,27.35
2023-01-08T14:54:33.829Z,22.83
2023-01-08T14:57:02.189Z,24.57
2023-01-08T14:59:34.839Z,27.23
2023-01-08T15:02:04.490Z,26.20
2023-01-08T15:04:32.301Z,27.85
2023-01-08T15:07:22.714Z,27.15
2023-01-08T15:09:58.385Z,23.60
2023-01-08T15:12:28.141Z,27.67
2023-01-08T15:14:55.836Z,26.23
2023-01-08T15:17:25.679Z,25.23
2023-01-08T15:19:57.990Z,21.48
2023-01-08T15:22:32.835Z,21.23
2023-01-08T15:25:02.534Z,20.73
2023-01-08T15:27:37.324Z,17.58
2023-01-08T15:30:06.006Z,19.20
2023-01-08T15:32:36.990Z,16.60
2023-01-08T15:35:25.856Z,20.50
2023-01-08T15:37:53.537Z,19.30
2023-01-08T15:40:21.167Z,16.40
2023-01-08T15:43:07.284Z,17.80
2023-01-08T15:45:35.011Z,19.67
2023-01-08T15:48:03.357Z,38.58
2023-01-08T15:50:37.547Z,62.03
2023-01-08T15:53:07.973Z,41.63
2023-01-08T15:55:35.343Z,31.17
2023-01-08T15:58:02.683Z,29.25
2023-01-08T16:00:30.730Z,30.23
2023-01-08T16:02:59.930Z,35.42
2023-01-08T16:05:29.117Z,31.12
2023-01-08T16:07:56.630Z,28.62
2023-01-08T16:10:24.881Z,29.02
2023-01-08T16:12:52.438Z,28.92
2023-01-08T16:15:19.835Z,29.55
2023-01-08T16:17:47.612Z,29.45
2023-01-08T16:20:15.373Z,29.67
2023-01-08T16:22:42.875Z,26.17
2023-01-08T16:25:10.900Z,27.42
2023-01-08T16:27:39.431Z,21.17
2023-01-08T16:30:08.222Z,17.40
2023-01-08T16:32:35.892Z,18.58
2023-01-08T16:35:03.744Z,14.68
2023-01-08T16:37:31.700Z,17.95
2023-01-08T16:39:59.335Z,14.77
2023-01-08T16:42:26.859Z,15.55
2023-01-08T16:44:54.336Z,18.50
2023-01-08T16:47:22.075Z,23.23
2023-01-08T16:49:50.438Z,29.15
2023-01-08T16:52:18.009Z,30.52
2023-01-08T16:54:46.050Z,30.73
2023-01-08T16:57:13.568Z,28.73
2023-01-08T16:59:41.008Z,27.95
2023-01-08T17:02:10.253Z,32.10
2023-01-08T17:04:37.776Z,33.38
2023-01-08T17:07:05.242Z,36.25
2023-01-08T17:09:34.280Z,32.20
2023-01-08T17:12:01.719Z,29.70
2023-01-08T17:14:29.149Z,28.55
2023-01-08T17:16:56.808Z,28.87
2023-01-08T17:19:24.205Z,30.05
2023-01-08T17:21:51.809Z,28.62
2023-01-08T17:24:19.523Z,23.90
2023-01-08T17:26:46.929Z,28.85
2023-01-08T17:29:14.341Z,26.58
2023-01-08T17:31:42.134Z,29.33
2023-01-08T17:34:13.398Z,28.05
2023-01-08T17:36:41.092Z,27.02
2023-01-08T17:39:11.041Z,27.37
2023-01-08T17:41:57.657Z,27.20
2023-01-08T17:44:26.531Z,29.85
2023-01-08T17:46:54.289Z,31.33
2023-01-08T17:49:21.745Z,36.45
2023-01-08T17:51:49.460Z,38.90
2023-01-08T17:54:17.122Z,37.67
2023-01-08T17:56:44.758Z,38.03
2023-01-08T17:59:14.080Z,35.60
2023-01-08T18:01:41.935Z,40.03
2023-01-08T18:04:09.644Z,58.35
2023-01-08T18:06:37.063Z,57.70
2023-01-08T18:09:04.696Z,51.25
2023-01-08T18:11:33.226Z,42.90
2023-01-08T18:14:02.201Z,39.72
2023-01-08T18:16:30.519Z,30.25
2023-01-08T18:18:59.266Z,30.67
2023-01-08T18:21:27.788Z,34.13
2023-01-08T18:23:55.813Z,24.83
2023-01-08T18:26:23.702Z,26.10
2023-01-08T18:28:51.982Z,31.02
2023-01-08T18:31:19.745Z,32.20
2023-01-08T18:33:51.495Z,31.12
2023-01-08T18:36:19.918Z,31.25
2023-01-08T18:38:48.359Z,31.50
2023-01-08T18:41:36.775Z,27.80
2023-01-08T18:44:05.862Z,20.37
2023-01-08T18:46:33.917Z,19.30
2023-01-08T18:49:01.932Z,15.13
2023-01-08T18:51:29.599Z,18.33
2023-01-08T18:53:57.073Z,16.70
2023-01-08T18:56:29.090Z,19.30
2023-01-08T19:01:24.637Z,14.38
2023-01-08T19:03:52.319Z,15.40
2023-01-08T19:06:20.061Z,13.60
2023-01-08T19:08:47.658Z,15.70
2023-01-08T19:11:15.505Z,16.55
2023-01-08T19:13:43.241Z,15.65
2023-01-08T19:16:12.883Z,31.52
2023-01-08T19:18:40.413Z,25.58
2023-01-08T19:21:09.428Z,31.83
2023-01-08T19:23:36.849Z,21.25
2023-01-08T19:26:07.984Z,16.58
2023-01-08T19:28:36.154Z,17.90
2023-01-08T19:31:03.721Z,14.65
2023-01-08T19:33:31.172Z,16.75
2023-01-08T19:36:08.467Z,14.50
2023-01-08T19:38:35.886Z,14.10
2023-01-08T19:41:03.538Z,13.88
2023-01-08T19:43:42.680Z,14.87
2023-01-08T19:46:15.123Z,15.07
2023-01-08T19:48:44.004Z,15.27
2023-01-08T19:51:12.726Z,14.60
2023-01-08T19:53:40.246Z,13.73
2023-01-08T19:56:13.147Z,13.85
2023-01-08T19:58:41.216Z,15.10
2023-01-08T20:01:13.905Z,18.37
2023-01-08T20:03:42.280Z,18.17
2023-01-08T20:06:20.976Z,17.73
2023-01-08T20:08:50.587Z,17.98
2023-01-08T20:11:18.010Z,17.33
2023-01-08T20:13:45.450Z,18.25
2023-01-08T20:16:15.712Z,17.08
2023-01-08T20:18:43.306Z,15.40
2023-01-08T20:21:16.937Z,17.75
2023-01-08T20:23:45.059Z,15.45
2023-01-08T20:26:15.139Z,15.23
2023-01-08T20:28:43.342Z,15.48
2023-01-08T20:31:12.191Z,18.60
2023-01-08T20:33:39.899Z,15.40
2023-01-08T20:36:15.893Z,16.25
2023-01-08T20:38:44.394Z,15.15
2023-01-08T20:41:12.135Z,15.07
2023-01-08T20:43:40.343Z,13.55
2023-01-08T20:46:13.762Z,14.38
2023-01-08T20:48:47.687Z,13.93
2023-01-08T20:51:16.305Z,12.88
2023-01-08T20:53:43.725Z,14.68
2023-01-08T20:56:13.227Z,14.00
2023-01-08T20:58:43.442Z,13.38
2023-01-08T21:01:13.986Z,14.75
2023-01-08T21:03:42.108Z,12.73
2023-01-08T21:06:20.890Z,12.85
2023-01-08T21:08:50.694Z,13.23
2023-01-08T21:11:19.015Z,12.85
2023-01-08T21:13:46.928Z,13.75
2023-01-08T21:16:17.415Z,13.45
2023-01-08T21:18:47.508Z,14.95
2023-01-08T21:21:23.329Z,13.25
2023-01-08T21:23:50.988Z,11.50
2023-01-08T21:26:19.155Z,13.13
2023-01-08T21:28:47.222Z,12.52
2023-01-08T21:31:20.363Z,11.80
2023-01-08T21:33:49.085Z,12.35
2023-01-08T21:36:21.740Z,13.05
2023-01-08T21:38:49.844Z,11.75
2023-01-08T21:41:38.892Z,11.60
2023-01-08T21:44:30.975Z,13.35
2023-01-08T21:47:00.356Z,12.53
2023-01-08T21:49:28.265Z,11.45
2023-01-08T21:52:14.329Z,15.05
2023-01-08T21:54:42.112Z,14.52
2023-01-08T21:57:10.048Z,19.12
2023-01-08T21:59:37.658Z,17.90
2023-01-08T22:02:06.025Z,20.25
2023-01-08T22:04:33.729Z,18.55
2023-01-08T22:07:01.220Z,15.93
2023-01-08T22:09:28.597Z,19.17
2023-01-08T22:11:56.264Z,21.05
2023-01-08T22:14:23.616Z,19.08
2023-01-08T22:16:51.126Z,15.60
2023-01-08T22:19:18.884Z,16.40
2023-01-08T22:21:46.320Z,17.40
2023-01-08T22:24:13.709Z,19.10
2023-01-08T22:26:41.450Z,22.40
2023-01-08T22:29:08.827Z,25.67
2023-01-08T22:31:36.210Z,23.23
2023-01-08T22:34:03.966Z,20.73
2023-01-08T22:36:31.326Z,19.83
2023-01-08T22:38:58.724Z,20.80
2023-01-08T22:41:26.441Z,23.67
2023-01-08T22:43:55.877Z,19.05
2023-01-08T22:46:23.911Z,18.95
2023-01-08T22:48:51.941Z,21.65
2023-01-08T22:51:24.780Z,18.20
2023-01-08T22:53:54.092Z,27.48
2023-01-08T22:56:21.491Z,19.10
2023-01-08T22:58:48.834Z,23.70
2023-01-08T23:01:22.166Z,21.37
2023-01-08T23:03:50.915Z,20.50
2023-01-08T23:06:20.525Z,19.58
2023-01-08T23:08:48.127Z,18.58
2023-01-08T23:11:17.204Z,23.67
2023-01-08T23:13:45.059Z,22.65
2023-01-08T23:16:14.543Z,26.70
2023-01-08T23:18:42.199Z,23.80
2023-01-08T23:21:12.702Z,21.35
2023-01-08T23:23:40.280Z,23.52
2023-01-08T23:26:10.124Z,27.27
2023-01-08T23:28:38.628Z,28.05
2023-01-08T23:31:07.901Z,26.45
2023-01-08T23:33:35.338Z,27.25
2023-01-08T23:36:03.452Z,24.60
2023-01-08T23:38:31.265Z,24.40
2023-01-08T23:40:59.025Z,29.12
2023-01-08T23:43:26.734Z,29.05
2023-01-08T23:45:55.630Z,29.75
2023-01-08T23:48:23.131Z,25.70
2023-01-08T23:50:50.825Z,26.75
2023-01-08T23:53:18.480Z,25.75
2023-01-08T23:55:45.833Z,26.25
2023-01-08T23:58:13.760Z,29.75
